sensor_id;sensor_type;location;lat;lon;timestamp;P1;durP1;ratioP1;P2;durP2;ratioP2
46439;SDS011;32138;50.966;6.968;2023-04-24T00:00:22;1.77;;;0.60;;
46439;SDS011;32138;50.966;6.968;2023-04-24T00:01:23;2.05;;;0.90;;
46439;SDS011;32138;50.966;6.968;2023-04-24T00:02:23;2.17;;;1.13;;
46439;SDS011;32138;50.966;6.968;2023-04-24T00:03:25;2.25;;;0.77;;
46439;SDS011;32138;50.966;6.968;2023-04-24T00:04:27;1.90;;;0.80;;
46439;SDS011;32138;50.966;6.968;2023-04-24T00:05:28;1.67;;;0.80;;
46439;SDS011;32138;50.966;6.968;2023-04-24T00:06:29;1.58;;;0.73;;
46439;SDS011;32138;50.966;6.968;2023-04-24T00:07:34;2.25;;;0.77;;
46439;SDS011;32138;50.966;6.968;2023-04-24T00:08:35;1.23;;;0.90;;
46439;SDS011;32138;50.966;6.968;2023-04-24T00:09:36;2.50;;;0.80;;
46439;SDS011;32138;50.966;6.968;2023-04-24T00:10:37;2.65;;;0.60;;
46439;SDS011;32138;50.966;6.968;2023-04-24T00:11:38;2.70;;;0.93;;
46439;SDS011;32138;50.966;6.968;2023-04-24T00:12:38;1.42;;;0.90;;
46439;SDS011;32138;50.966;6.968;2023-04-24T00:13:39;3.97;;;1.10;;
46439;SDS011;32138;50.966;6.968;2023-04-24T00:14:40;2.45;;;0.90;;
46439;SDS011;32138;50.966;6.968;2023-04-24T00:15:41;2.85;;;0.80;;
46439;SDS011;32138;50.966;6.968;2023-04-24T00:16:41;1.52;;;0.70;;
46439;SDS011;32138;50.966;6.968;2023-04-24T00:17:42;2.35;;;0.98;;
46439;SDS011;32138;50.966;6.968;2023-04-24T00:18:43;0.60;;;0.60;;
46439;SDS011;32138;50.966;6.968;2023-04-24T00:19:45;2.40;;;1.17;;
46439;SDS011;32138;50.966;6.968;2023-04-24T00:20:51;3.05;;;0.80;;
46439;SDS011;32138;50.966;6.968;2023-04-24T00:21:51;1.90;;;0.82;;
46439;SDS011;32138;50.966;6.968;2023-04-24T00:22:52;4.07;;;1.00;;
46439;SDS011;32138;50.966;6.968;2023-04-24T00:23:53;2.03;;;0.80;;
46439;SDS011;32138;50.966;6.968;2023-04-24T00:24:54;2.20;;;1.05;;
46439;SDS011;32138;50.966;6.968;2023-04-24T00:25:55;1.23;;;0.80;;
46439;SDS011;32138;50.966;6.968;2023-04-24T00:26:55;3.42;;;1.17;;
46439;SDS011;32138;50.966;6.968;2023-04-24T00:27:57;1.95;;;1.00;;
46439;SDS011;32138;50.966;6.968;2023-04-24T00:28:57;2.00;;;0.95;;
46439;SDS011;32138;50.966;6.968;2023-04-24T00:29:58;1.95;;;0.98;;
46439;SDS011;32138;50.966;6.968;2023-04-24T00:30:59;1.52;;;0.73;;
46439;SDS011;32138;50.966;6.968;2023-04-24T00:31:59;1.63;;;1.00;;
46439;SDS011;32138;50.966;6.968;2023-04-24T00:33:00;2.40;;;0.85;;
46439;SDS011;32138;50.966;6.968;2023-04-24T00:34:01;1.55;;;0.80;;
46439;SDS011;32138;50.966;6.968;2023-04-24T00:35:03;2.38;;;0.80;;
46439;SDS011;32138;50.966;6.968;2023-04-24T00:36:05;1.52;;;0.90;;
46439;SDS011;32138;50.966;6.968;2023-04-24T00:37:07;2.55;;;0.60;;
46439;SDS011;32138;50.966;6.968;2023-04-24T00:38:08;4.40;;;0.80;;
46439;SDS011;32138;50.966;6.968;2023-04-24T00:39:08;2.08;;;0.90;;
46439;SDS011;32138;50.966;6.968;2023-04-24T00:40:10;2.17;;;1.00;;
46439;SDS011;32138;50.966;6.968;2023-04-24T00:41:11;1.38;;;0.82;;
46439;SDS011;32138;50.966;6.968;2023-04-24T00:42:12;1.08;;;0.73;;
46439;SDS011;32138;50.966;6.968;2023-04-24T00:43:13;1.30;;;0.98;;
46439;SDS011;32138;50.966;6.968;2023-04-24T00:44:14;2.35;;;0.90;;
46439;SDS011;32138;50.966;6.968;2023-04-24T00:45:15;1.17;;;0.82;;
46439;SDS011;32138;50.966;6.968;2023-04-24T00:46:16;1.48;;;0.82;;
46439;SDS011;32138;50.966;6.968;2023-04-24T00:47:17;2.65;;;1.23;;
46439;SDS011;32138;50.966;6.968;2023-04-24T00:48:19;0.93;;;0.80;;
46439;SDS011;32138;50.966;6.968;2023-04-24T00:49:21;1.77;;;0.80;;
46439;SDS011;32138;50.966;6.968;2023-04-24T00:50:23;2.13;;;0.95;;
46439;SDS011;32138;50.966;6.968;2023-04-24T00:51:24;2.15;;;0.82;;
46439;SDS011;32138;50.966;6.968;2023-04-24T00:52:25;1.40;;;0.88;;
46439;SDS011;32138;50.966;6.968;2023-04-24T00:53:26;2.67;;;1.42;;
46439;SDS011;32138;50.966;6.968;2023-04-24T00:54:27;1.98;;;0.90;;
46439;SDS011;32138;50.966;6.968;2023-04-24T00:55:27;1.83;;;0.90;;
46439;SDS011;32138;50.966;6.968;2023-04-24T00:56:28;1.50;;;0.73;;
46439;SDS011;32138;50.966;6.968;2023-04-24T00:57:30;1.88;;;0.90;;
46439;SDS011;32138;50.966;6.968;2023-04-24T00:58:31;2.63;;;0.90;;
46439;SDS011;32138;50.966;6.968;2023-04-24T00:59:32;1.20;;;0.95;;
46439;SDS011;32138;50.966;6.968;2023-04-24T01:00:33;1.55;;;0.90;;
46439;SDS011;32138;50.966;6.968;2023-04-24T01:01:35;1.70;;;0.98;;
46439;SDS011;32138;50.966;6.968;2023-04-24T01:02:37;1.55;;;0.80;;
46439;SDS011;32138;50.966;6.968;2023-04-24T01:03:40;1.67;;;0.90;;
46439;SDS011;32138;50.966;6.968;2023-04-24T01:04:41;2.60;;;0.70;;
46439;SDS011;32138;50.966;6.968;2023-04-24T01:05:42;2.30;;;0.70;;
46439;SDS011;32138;50.966;6.968;2023-04-24T01:06:43;1.52;;;0.95;;
46439;SDS011;32138;50.966;6.968;2023-04-24T01:07:45;4.00;;;1.10;;
46439;SDS011;32138;50.966;6.968;2023-04-24T01:08:48;1.23;;;0.90;;
46439;SDS011;32138;50.966;6.968;2023-04-24T01:09:50;3.03;;;1.10;;
46439;SDS011;32138;50.966;6.968;2023-04-24T01:10:52;2.50;;;0.85;;
46439;SDS011;32138;50.966;6.968;2023-04-24T01:11:53;2.25;;;0.98;;
46439;SDS011;32138;50.966;6.968;2023-04-24T01:12:54;2.70;;;0.90;;
46439;SDS011;32138;50.966;6.968;2023-04-24T01:13:55;1.15;;;1.02;;
46439;SDS011;32138;50.966;6.968;2023-04-24T01:14:57;3.22;;;1.23;;
46439;SDS011;32138;50.966;6.968;2023-04-24T01:15:58;3.38;;;1.40;;
46439;SDS011;32138;50.966;6.968;2023-04-24T01:16:59;3.47;;;1.60;;
46439;SDS011;32138;50.966;6.968;2023-04-24T01:18:00;2.33;;;1.00;;
46439;SDS011;32138;50.966;6.968;2023-04-24T01:19:01;3.78;;;1.67;;
46439;SDS011;32138;50.966;6.968;2023-04-24T01:20:02;2.08;;;1.15;;
46439;SDS011;32138;50.966;6.968;2023-04-24T01:21:05;3.25;;;1.48;;
46439;SDS011;32138;50.966;6.968;2023-04-24T01:22:10;4.93;;;1.20;;
46439;SDS011;32138;50.966;6.968;2023-04-24T01:23:12;3.15;;;1.58;;
46439;SDS011;32138;50.966;6.968;2023-04-24T01:24:13;5.40;;;1.50;;
46439;SDS011;32138;50.966;6.968;2023-04-24T01:25:14;1.95;;;0.98;;
46439;SDS011;32138;50.966;6.968;2023-04-24T01:26:16;1.98;;;1.08;;
46439;SDS011;32138;50.966;6.968;2023-04-24T01:27:19;1.58;;;1.00;;
46439;SDS011;32138;50.966;6.968;2023-04-24T01:28:21;2.72;;;1.20;;
46439;SDS011;32138;50.966;6.968;2023-04-24T01:29:22;2.58;;;1.38;;
46439;SDS011;32138;50.966;6.968;2023-04-24T01:30:24;2.17;;;1.00;;
46439;SDS011;32138;50.966;6.968;2023-04-24T01:31:26;2.65;;;1.13;;
46439;SDS011;32138;50.966;6.968;2023-04-24T01:32:26;1.77;;;1.20;;
46439;SDS011;32138;50.966;6.968;2023-04-24T01:33:28;2.10;;;1.10;;
46439;SDS011;32138;50.966;6.968;2023-04-24T01:34:29;4.93;;;1.70;;
46439;SDS011;32138;50.966;6.968;2023-04-24T01:35:30;2.72;;;1.80;;
46439;SDS011;32138;50.966;6.968;2023-04-24T01:36:32;2.33;;;1.40;;
46439;SDS011;32138;50.966;6.968;2023-04-24T01:37:35;3.25;;;2.10;;
46439;SDS011;32138;50.966;6.968;2023-04-24T01:38:37;4.50;;;2.65;;
46439;SDS011;32138;50.966;6.968;2023-04-24T01:39:38;4.90;;;2.53;;
46439;SDS011;32138;50.966;6.968;2023-04-24T01:40:39;5.75;;;2.75;;
46439;SDS011;32138;50.966;6.968;2023-04-24T01:41:39;4.57;;;2.83;;
46439;SDS011;32138;50.966;6.968;2023-04-24T01:42:40;4.45;;;2.60;;
46439;SDS011;32138;50.966;6.968;2023-04-24T01:43:42;3.05;;;2.30;;
46439;SDS011;32138;50.966;6.968;2023-04-24T01:44:42;5.20;;;2.80;;
46439;SDS011;32138;50.966;6.968;2023-04-24T01:45:44;3.45;;;2.53;;
46439;SDS011;32138;50.966;6.968;2023-04-24T01:46:45;3.30;;;2.28;;
46439;SDS011;32138;50.966;6.968;2023-04-24T01:47:46;4.38;;;2.42;;
46439;SDS011;32138;50.966;6.968;2023-04-24T01:48:48;4.30;;;2.85;;
46439;SDS011;32138;50.966;6.968;2023-04-24T01:49:50;5.18;;;3.05;;
46439;SDS011;32138;50.966;6.968;2023-04-24T01:50:51;4.47;;;2.85;;
46439;SDS011;32138;50.966;6.968;2023-04-24T01:51:52;4.50;;;3.42;;
46439;SDS011;32138;50.966;6.968;2023-04-24T01:52:53;5.25;;;3.30;;
46439;SDS011;32138;50.966;6.968;2023-04-24T01:53:53;4.20;;;2.88;;
46439;SDS011;32138;50.966;6.968;2023-04-24T01:54:54;4.47;;;2.92;;
46439;SDS011;32138;50.966;6.968;2023-04-24T01:55:55;5.78;;;2.85;;
46439;SDS011;32138;50.966;6.968;2023-04-24T01:56:57;5.13;;;3.45;;
46439;SDS011;32138;50.966;6.968;2023-04-24T01:57:57;5.43;;;3.33;;
46439;SDS011;32138;50.966;6.968;2023-04-24T01:59:00;7.75;;;3.58;;
46439;SDS011;32138;50.966;6.968;2023-04-24T02:00:03;6.53;;;3.67;;
46439;SDS011;32138;50.966;6.968;2023-04-24T02:01:06;5.15;;;3.47;;
46439;SDS011;32138;50.966;6.968;2023-04-24T02:02:07;6.50;;;3.38;;
46439;SDS011;32138;50.966;6.968;2023-04-24T02:03:08;4.28;;;3.20;;
46439;SDS011;32138;50.966;6.968;2023-04-24T02:04:09;4.40;;;3.33;;
46439;SDS011;32138;50.966;6.968;2023-04-24T02:05:10;4.80;;;3.58;;
46439;SDS011;32138;50.966;6.968;2023-04-24T02:06:10;4.97;;;3.30;;
46439;SDS011;32138;50.966;6.968;2023-04-24T02:07:11;6.20;;;4.18;;
46439;SDS011;32138;50.966;6.968;2023-04-24T02:08:12;5.53;;;3.63;;
46439;SDS011;32138;50.966;6.968;2023-04-24T02:09:13;5.15;;;3.95;;
46439;SDS011;32138;50.966;6.968;2023-04-24T02:10:13;6.10;;;3.63;;
46439;SDS011;32138;50.966;6.968;2023-04-24T02:11:14;6.30;;;4.05;;
46439;SDS011;32138;50.966;6.968;2023-04-24T02:12:15;6.57;;;4.30;;
46439;SDS011;32138;50.966;6.968;2023-04-24T02:13:17;6.80;;;4.32;;
46439;SDS011;32138;50.966;6.968;2023-04-24T02:14:18;5.28;;;4.35;;
46439;SDS011;32138;50.966;6.968;2023-04-24T02:15:18;6.13;;;4.20;;
46439;SDS011;32138;50.966;6.968;2023-04-24T02:16:19;4.22;;;3.45;;
46439;SDS011;32138;50.966;6.968;2023-04-24T02:17:20;6.30;;;4.20;;
46439;SDS011;32138;50.966;6.968;2023-04-24T02:18:21;5.85;;;4.10;;
46439;SDS011;32138;50.966;6.968;2023-04-24T02:19:22;6.07;;;4.97;;
46439;SDS011;32138;50.966;6.968;2023-04-24T02:20:23;4.95;;;3.58;;
46439;SDS011;32138;50.966;6.968;2023-04-24T02:21:24;8.20;;;4.88;;
46439;SDS011;32138;50.966;6.968;2023-04-24T02:22:25;5.97;;;4.50;;
46439;SDS011;32138;50.966;6.968;2023-04-24T02:23:26;8.13;;;5.07;;
46439;SDS011;32138;50.966;6.968;2023-04-24T02:24:27;6.43;;;4.18;;
46439;SDS011;32138;50.966;6.968;2023-04-24T02:25:27;5.70;;;4.72;;
46439;SDS011;32138;50.966;6.968;2023-04-24T02:26:28;7.32;;;5.13;;
46439;SDS011;32138;50.966;6.968;2023-04-24T02:27:31;7.47;;;4.38;;
46439;SDS011;32138;50.966;6.968;2023-04-24T02:28:32;6.57;;;5.00;;
46439;SDS011;32138;50.966;6.968;2023-04-24T02:29:33;5.78;;;5.18;;
46439;SDS011;32138;50.966;6.968;2023-04-24T02:30:34;5.32;;;4.72;;
46439;SDS011;32138;50.966;6.968;2023-04-24T02:31:35;8.15;;;4.55;;
46439;SDS011;32138;50.966;6.968;2023-04-24T02:32:36;13.43;;;5.40;;
46439;SDS011;32138;50.966;6.968;2023-04-24T02:33:36;6.85;;;4.50;;
46439;SDS011;32138;50.966;6.968;2023-04-24T02:34:37;6.57;;;4.75;;
46439;SDS011;32138;50.966;6.968;2023-04-24T02:35:38;7.53;;;5.38;;
46439;SDS011;32138;50.966;6.968;2023-04-24T02:36:39;6.40;;;4.72;;
46439;SDS011;32138;50.966;6.968;2023-04-24T02:37:40;9.23;;;5.28;;
46439;SDS011;32138;50.966;6.968;2023-04-24T02:38:40;7.15;;;4.95;;
46439;SDS011;32138;50.966;6.968;2023-04-24T02:39:41;6.80;;;5.20;;
46439;SDS011;32138;50.966;6.968;2023-04-24T02:40:42;5.72;;;4.50;;
46439;SDS011;32138;50.966;6.968;2023-04-24T02:41:43;6.28;;;4.78;;
46439;SDS011;32138;50.966;6.968;2023-04-24T02:42:44;7.15;;;4.70;;
46439;SDS011;32138;50.966;6.968;2023-04-24T02:43:45;7.65;;;4.70;;
46439;SDS011;32138;50.966;6.968;2023-04-24T02:44:45;5.68;;;4.72;;
46439;SDS011;32138;50.966;6.968;2023-04-24T02:45:46;7.97;;;5.20;;
46439;SDS011;32138;50.966;6.968;2023-04-24T02:46:47;7.60;;;4.93;;
46439;SDS011;32138;50.966;6.968;2023-04-24T02:47:48;8.73;;;5.72;;
46439;SDS011;32138;50.966;6.968;2023-04-24T02:48:48;6.90;;;4.38;;
46439;SDS011;32138;50.966;6.968;2023-04-24T02:49:49;9.60;;;4.65;;
46439;SDS011;32138;50.966;6.968;2023-04-24T02:50:50;6.70;;;4.50;;
46439;SDS011;32138;50.966;6.968;2023-04-24T02:51:51;7.15;;;4.85;;
46439;SDS011;32138;50.966;6.968;2023-04-24T02:52:52;11.57;;;5.40;;
46439;SDS011;32138;50.966;6.968;2023-04-24T02:53:52;8.82;;;5.40;;
46439;SDS011;32138;50.966;6.968;2023-04-24T02:54:53;7.75;;;5.30;;
46439;SDS011;32138;50.966;6.968;2023-04-24T02:55:54;6.65;;;5.10;;
46439;SDS011;32138;50.966;6.968;2023-04-24T02:56:55;5.47;;;4.88;;
46439;SDS011;32138;50.966;6.968;2023-04-24T02:57:56;6.35;;;4.90;;
46439;SDS011;32138;50.966;6.968;2023-04-24T02:58:57;6.50;;;5.10;;
46439;SDS011;32138;50.966;6.968;2023-04-24T02:59:58;6.38;;;5.28;;
46439;SDS011;32138;50.966;6.968;2023-04-24T03:00:58;8.88;;;6.55;;
46439;SDS011;32138;50.966;6.968;2023-04-24T03:02:00;7.07;;;4.80;;
46439;SDS011;32138;50.966;6.968;2023-04-24T03:03:01;7.15;;;4.70;;
46439;SDS011;32138;50.966;6.968;2023-04-24T03:04:02;7.53;;;5.40;;
46439;SDS011;32138;50.966;6.968;2023-04-24T03:05:03;8.60;;;6.03;;
46439;SDS011;32138;50.966;6.968;2023-04-24T03:06:05;6.95;;;5.70;;
46439;SDS011;32138;50.966;6.968;2023-04-24T03:07:06;9.10;;;6.20;;
46439;SDS011;32138;50.966;6.968;2023-04-24T03:08:06;6.88;;;5.78;;
46439;SDS011;32138;50.966;6.968;2023-04-24T03:09:07;8.35;;;5.82;;
46439;SDS011;32138;50.966;6.968;2023-04-24T03:10:08;7.85;;;6.03;;
46439;SDS011;32138;50.966;6.968;2023-04-24T03:11:09;7.80;;;5.22;;
46439;SDS011;32138;50.966;6.968;2023-04-24T03:12:10;9.68;;;6.32;;
46439;SDS011;32138;50.966;6.968;2023-04-24T03:13:10;9.77;;;6.03;;
46439;SDS011;32138;50.966;6.968;2023-04-24T03:14:11;10.63;;;6.03;;
46439;SDS011;32138;50.966;6.968;2023-04-24T03:15:12;8.43;;;6.88;;
46439;SDS011;32138;50.966;6.968;2023-04-24T03:16:13;10.30;;;6.15;;
46439;SDS011;32138;50.966;6.968;2023-04-24T03:17:13;10.57;;;6.38;;
46439;SDS011;32138;50.966;6.968;2023-04-24T03:18:14;6.85;;;5.63;;
46439;SDS011;32138;50.966;6.968;2023-04-24T03:19:15;9.55;;;7.40;;
46439;SDS011;32138;50.966;6.968;2023-04-24T03:20:16;9.23;;;6.82;;
46439;SDS011;32138;50.966;6.968;2023-04-24T03:21:17;8.15;;;6.85;;
46439;SDS011;32138;50.966;6.968;2023-04-24T03:22:18;9.80;;;6.72;;
46439;SDS011;32138;50.966;6.968;2023-04-24T03:23:18;9.30;;;7.15;;
46439;SDS011;32138;50.966;6.968;2023-04-24T03:24:19;9.90;;;6.28;;
46439;SDS011;32138;50.966;6.968;2023-04-24T03:25:20;10.80;;;6.75;;
46439;SDS011;32138;50.966;6.968;2023-04-24T03:26:21;7.82;;;5.97;;
46439;SDS011;32138;50.966;6.968;2023-04-24T03:27:22;6.70;;;6.00;;
46439;SDS011;32138;50.966;6.968;2023-04-24T03:28:23;10.88;;;7.78;;
46439;SDS011;32138;50.966;6.968;2023-04-24T03:29:25;9.73;;;7.40;;
46439;SDS011;32138;50.966;6.968;2023-04-24T03:30:25;8.38;;;6.68;;
46439;SDS011;32138;50.966;6.968;2023-04-24T03:31:26;8.65;;;6.63;;
46439;SDS011;32138;50.966;6.968;2023-04-24T03:32:27;9.10;;;6.43;;
46439;SDS011;32138;50.966;6.968;2023-04-24T03:33:28;11.18;;;7.60;;
46439;SDS011;32138;50.966;6.968;2023-04-24T03:34:29;9.15;;;6.72;;
46439;SDS011;32138;50.966;6.968;2023-04-24T03:35:29;8.73;;;6.68;;
46439;SDS011;32138;50.966;6.968;2023-04-24T03:36:30;9.73;;;6.78;;
46439;SDS011;32138;50.966;6.968;2023-04-24T03:37:31;9.98;;;6.57;;
46439;SDS011;32138;50.966;6.968;2023-04-24T03:38:32;8.23;;;6.63;;
46439;SDS011;32138;50.966;6.968;2023-04-24T03:39:32;10.88;;;6.38;;
46439;SDS011;32138;50.966;6.968;2023-04-24T03:40:33;10.32;;;7.05;;
46439;SDS011;32138;50.966;6.968;2023-04-24T03:41:34;8.63;;;7.13;;
46439;SDS011;32138;50.966;6.968;2023-04-24T03:42:35;9.63;;;6.32;;
46439;SDS011;32138;50.966;6.968;2023-04-24T03:43:35;10.70;;;7.50;;
46439;SDS011;32138;50.966;6.968;2023-04-24T03:44:36;9.32;;;6.22;;
46439;SDS011;32138;50.966;6.968;2023-04-24T03:45:37;10.32;;;7.32;;
46439;SDS011;32138;50.966;6.968;2023-04-24T03:46:38;7.22;;;5.95;;
46439;SDS011;32138;50.966;6.968;2023-04-24T03:47:39;7.55;;;6.32;;
46439;SDS011;32138;50.966;6.968;2023-04-24T03:48:39;7.80;;;7.00;;
46439;SDS011;32138;50.966;6.968;2023-04-24T03:49:40;9.82;;;7.72;;
46439;SDS011;32138;50.966;6.968;2023-04-24T03:50:41;12.70;;;6.70;;
46439;SDS011;32138;50.966;6.968;2023-04-24T03:51:42;9.45;;;7.32;;
46439;SDS011;32138;50.966;6.968;2023-04-24T03:52:42;10.88;;;6.18;;
46439;SDS011;32138;50.966;6.968;2023-04-24T03:53:43;8.68;;;6.25;;
46439;SDS011;32138;50.966;6.968;2023-04-24T03:54:44;8.20;;;6.60;;
46439;SDS011;32138;50.966;6.968;2023-04-24T03:55:45;10.82;;;7.10;;
46439;SDS011;32138;50.966;6.968;2023-04-24T03:56:46;7.50;;;6.53;;
46439;SDS011;32138;50.966;6.968;2023-04-24T03:57:47;8.32;;;6.65;;
46439;SDS011;32138;50.966;6.968;2023-04-24T03:58:47;16.17;;;7.00;;
46439;SDS011;32138;50.966;6.968;2023-04-24T04:00:09;9.90;;;7.03;;
46439;SDS011;32138;50.966;6.968;2023-04-24T04:01:10;8.98;;;7.07;;
46439;SDS011;32138;50.966;6.968;2023-04-24T04:02:11;10.27;;;6.60;;
46439;SDS011;32138;50.966;6.968;2023-04-24T04:03:12;8.77;;;6.85;;
46439;SDS011;32138;50.966;6.968;2023-04-24T04:04:14;11.45;;;7.07;;
46439;SDS011;32138;50.966;6.968;2023-04-24T04:05:15;8.10;;;6.80;;
46439;SDS011;32138;50.966;6.968;2023-04-24T04:06:16;9.63;;;6.57;;
46439;SDS011;32138;50.966;6.968;2023-04-24T04:07:16;7.68;;;6.70;;
46439;SDS011;32138;50.966;6.968;2023-04-24T04:08:17;8.20;;;7.00;;
46439;SDS011;32138;50.966;6.968;2023-04-24T04:09:18;7.72;;;6.85;;
46439;SDS011;32138;50.966;6.968;2023-04-24T04:10:19;8.27;;;6.15;;
46439;SDS011;32138;50.966;6.968;2023-04-24T04:11:20;9.18;;;7.00;;
46439;SDS011;32138;50.966;6.968;2023-04-24T04:12:20;9.85;;;6.63;;
46439;SDS011;32138;50.966;6.968;2023-04-24T04:13:21;9.48;;;6.80;;
46439;SDS011;32138;50.966;6.968;2023-04-24T04:14:22;7.65;;;6.50;;
46439;SDS011;32138;50.966;6.968;2023-04-24T04:15:23;11.50;;;5.93;;
46439;SDS011;32138;50.966;6.968;2023-04-24T04:16:24;9.20;;;6.63;;
46439;SDS011;32138;50.966;6.968;2023-04-24T04:17:25;9.85;;;6.38;;
46439;SDS011;32138;50.966;6.968;2023-04-24T04:18:25;11.13;;;6.57;;
46439;SDS011;32138;50.966;6.968;2023-04-24T04:19:26;13.70;;;7.70;;
46439;SDS011;32138;50.966;6.968;2023-04-24T04:20:27;10.55;;;6.60;;
46439;SDS011;32138;50.966;6.968;2023-04-24T04:21:27;9.65;;;6.72;;
46439;SDS011;32138;50.966;6.968;2023-04-24T04:22:29;8.13;;;6.57;;
46439;SDS011;32138;50.966;6.968;2023-04-24T04:23:29;8.90;;;6.57;;
46439;SDS011;32138;50.966;6.968;2023-04-24T04:24:30;12.98;;;7.03;;
46439;SDS011;32138;50.966;6.968;2023-04-24T04:25:31;9.45;;;5.93;;
46439;SDS011;32138;50.966;6.968;2023-04-24T04:26:32;7.90;;;5.85;;
46439;SDS011;32138;50.966;6.968;2023-04-24T04:27:33;8.85;;;6.18;;
46439;SDS011;32138;50.966;6.968;2023-04-24T04:28:35;7.63;;;5.40;;
46439;SDS011;32138;50.966;6.968;2023-04-24T04:29:36;7.70;;;6.07;;
46439;SDS011;32138;50.966;6.968;2023-04-24T04:30:36;9.02;;;5.95;;
46439;SDS011;32138;50.966;6.968;2023-04-24T04:31:38;10.60;;;6.65;;
46439;SDS011;32138;50.966;6.968;2023-04-24T04:32:39;7.13;;;5.75;;
46439;SDS011;32138;50.966;6.968;2023-04-24T04:33:39;9.18;;;6.90;;
46439;SDS011;32138;50.966;6.968;2023-04-24T04:34:40;8.63;;;6.75;;
46439;SDS011;32138;50.966;6.968;2023-04-24T04:35:42;13.52;;;6.75;;
46439;SDS011;32138;50.966;6.968;2023-04-24T04:36:42;8.85;;;6.57;;
46439;SDS011;32138;50.966;6.968;2023-04-24T04:37:44;7.80;;;6.30;;
46439;SDS011;32138;50.966;6.968;2023-04-24T04:38:45;8.65;;;6.13;;
46439;SDS011;32138;50.966;6.968;2023-04-24T04:39:46;7.03;;;6.28;;
46439;SDS011;32138;50.966;6.968;2023-04-24T04:40:47;6.95;;;6.15;;
46439;SDS011;32138;50.966;6.968;2023-04-24T04:41:48;7.72;;;5.90;;
46439;SDS011;32138;50.966;6.968;2023-04-24T04:42:48;8.10;;;6.22;;
46439;SDS011;32138;50.966;6.968;2023-04-24T04:43:52;8.63;;;6.55;;
46439;SDS011;32138;50.966;6.968;2023-04-24T04:44:53;8.10;;;6.10;;
46439;SDS011;32138;50.966;6.968;2023-04-24T04:45:54;10.23;;;6.57;;
46439;SDS011;32138;50.966;6.968;2023-04-24T04:46:55;7.85;;;6.40;;
46439;SDS011;32138;50.966;6.968;2023-04-24T04:47:57;8.63;;;5.82;;
46439;SDS011;32138;50.966;6.968;2023-04-24T04:48:58;9.55;;;6.07;;
46439;SDS011;32138;50.966;6.968;2023-04-24T04:50:01;6.90;;;5.13;;
46439;SDS011;32138;50.966;6.968;2023-04-24T04:51:03;8.38;;;6.30;;
46439;SDS011;32138;50.966;6.968;2023-04-24T04:52:04;9.85;;;7.63;;
46439;SDS011;32138;50.966;6.968;2023-04-24T04:53:05;11.32;;;8.18;;
46439;SDS011;32138;50.966;6.968;2023-04-24T04:54:06;10.48;;;6.53;;
46439;SDS011;32138;50.966;6.968;2023-04-24T04:55:07;10.68;;;6.55;;
46439;SDS011;32138;50.966;6.968;2023-04-24T04:56:08;8.20;;;6.18;;
46439;SDS011;32138;50.966;6.968;2023-04-24T04:57:10;11.52;;;9.45;;
46439;SDS011;32138;50.966;6.968;2023-04-24T04:58:10;11.75;;;9.35;;
46439;SDS011;32138;50.966;6.968;2023-04-24T04:59:11;9.68;;;6.00;;
46439;SDS011;32138;50.966;6.968;2023-04-24T05:00:12;9.73;;;5.72;;
46439;SDS011;32138;50.966;6.968;2023-04-24T05:01:13;8.90;;;6.00;;
46439;SDS011;32138;50.966;6.968;2023-04-24T05:02:14;9.77;;;6.70;;
46439;SDS011;32138;50.966;6.968;2023-04-24T05:03:15;9.07;;;5.63;;
46439;SDS011;32138;50.966;6.968;2023-04-24T05:04:16;8.02;;;5.57;;
46439;SDS011;32138;50.966;6.968;2023-04-24T05:05:17;8.45;;;5.90;;
46439;SDS011;32138;50.966;6.968;2023-04-24T05:06:18;7.93;;;6.20;;
46439;SDS011;32138;50.966;6.968;2023-04-24T05:07:19;8.63;;;5.82;;
46439;SDS011;32138;50.966;6.968;2023-04-24T05:08:20;11.05;;;6.15;;
46439;SDS011;32138;50.966;6.968;2023-04-24T05:09:21;8.13;;;5.70;;
46439;SDS011;32138;50.966;6.968;2023-04-24T05:10:22;7.57;;;6.18;;
46439;SDS011;32138;50.966;6.968;2023-04-24T05:11:23;7.85;;;5.65;;
46439;SDS011;32138;50.966;6.968;2023-04-24T05:12:23;9.43;;;5.97;;
46439;SDS011;32138;50.966;6.968;2023-04-24T05:13:24;6.68;;;5.30;;
46439;SDS011;32138;50.966;6.968;2023-04-24T05:14:25;7.50;;;5.88;;
46439;SDS011;32138;50.966;6.968;2023-04-24T05:15:25;8.68;;;5.13;;
46439;SDS011;32138;50.966;6.968;2023-04-24T05:16:26;8.65;;;6.18;;
46439;SDS011;32138;50.966;6.968;2023-04-24T05:17:27;9.38;;;5.57;;
46439;SDS011;32138;50.966;6.968;2023-04-24T05:18:28;10.52;;;5.57;;
46439;SDS011;32138;50.966;6.968;2023-04-24T05:19:29;9.40;;;5.75;;
46439;SDS011;32138;50.966;6.968;2023-04-24T05:20:29;7.82;;;5.90;;
46439;SDS011;32138;50.966;6.968;2023-04-24T05:21:30;7.22;;;5.25;;
46439;SDS011;32138;50.966;6.968;2023-04-24T05:22:31;5.88;;;4.80;;
46439;SDS011;32138;50.966;6.968;2023-04-24T05:23:32;10.32;;;5.97;;
46439;SDS011;32138;50.966;6.968;2023-04-24T05:24:33;7.10;;;4.85;;
46439;SDS011;32138;50.966;6.968;2023-04-24T05:25:34;9.82;;;6.15;;
46439;SDS011;32138;50.966;6.968;2023-04-24T05:26:35;8.85;;;5.47;;
46439;SDS011;32138;50.966;6.968;2023-04-24T05:27:36;11.07;;;6.03;;
46439;SDS011;32138;50.966;6.968;2023-04-24T05:28:37;9.77;;;6.10;;
46439;SDS011;32138;50.966;6.968;2023-04-24T05:29:37;9.10;;;6.25;;
46439;SDS011;32138;50.966;6.968;2023-04-24T05:30:38;9.55;;;5.97;;
46439;SDS011;32138;50.966;6.968;2023-04-24T05:31:39;7.65;;;5.63;;
46439;SDS011;32138;50.966;6.968;2023-04-24T05:32:40;9.43;;;6.25;;
46439;SDS011;32138;50.966;6.968;2023-04-24T05:33:41;7.45;;;5.55;;
46439;SDS011;32138;50.966;6.968;2023-04-24T05:34:42;7.43;;;5.72;;
46439;SDS011;32138;50.966;6.968;2023-04-24T05:35:42;7.72;;;5.35;;
46439;SDS011;32138;50.966;6.968;2023-04-24T05:36:46;6.63;;;5.25;;
46439;SDS011;32138;50.966;6.968;2023-04-24T05:37:47;6.88;;;5.68;;
46439;SDS011;32138;50.966;6.968;2023-04-24T05:38:48;7.38;;;5.38;;
46439;SDS011;32138;50.966;6.968;2023-04-24T05:39:48;8.80;;;6.13;;
46439;SDS011;32138;50.966;6.968;2023-04-24T05:40:49;6.55;;;5.18;;
46439;SDS011;32138;50.966;6.968;2023-04-24T05:41:50;7.70;;;5.35;;
46439;SDS011;32138;50.966;6.968;2023-04-24T05:42:51;8.50;;;5.43;;
46439;SDS011;32138;50.966;6.968;2023-04-24T05:43:52;6.90;;;5.43;;
46439;SDS011;32138;50.966;6.968;2023-04-24T05:44:53;10.88;;;5.57;;
46439;SDS011;32138;50.966;6.968;2023-04-24T05:45:54;7.90;;;5.82;;
46439;SDS011;32138;50.966;6.968;2023-04-24T05:46:55;11.07;;;7.60;;
46439;SDS011;32138;50.966;6.968;2023-04-24T05:47:56;9.10;;;6.10;;
46439;SDS011;32138;50.966;6.968;2023-04-24T05:48:57;8.82;;;7.80;;
46439;SDS011;32138;50.966;6.968;2023-04-24T05:49:58;10.50;;;8.40;;
46439;SDS011;32138;50.966;6.968;2023-04-24T05:50:58;8.32;;;6.10;;
46439;SDS011;32138;50.966;6.968;2023-04-24T05:51:59;10.00;;;5.63;;
46439;SDS011;32138;50.966;6.968;2023-04-24T05:53:00;12.85;;;9.93;;
46439;SDS011;32138;50.966;6.968;2023-04-24T05:54:02;11.18;;;7.63;;
46439;SDS011;32138;50.966;6.968;2023-04-24T05:55:03;8.75;;;6.75;;
46439;SDS011;32138;50.966;6.968;2023-04-24T05:56:04;8.93;;;5.15;;
46439;SDS011;32138;50.966;6.968;2023-04-24T05:57:05;6.43;;;5.25;;
46439;SDS011;32138;50.966;6.968;2023-04-24T05:58:07;7.80;;;5.72;;
46439;SDS011;32138;50.966;6.968;2023-04-24T05:59:08;9.13;;;5.60;;
46439;SDS011;32138;50.966;6.968;2023-04-24T06:00:09;7.85;;;5.63;;
46439;SDS011;32138;50.966;6.968;2023-04-24T06:01:12;8.52;;;6.35;;
46439;SDS011;32138;50.966;6.968;2023-04-24T06:02:14;9.27;;;5.38;;
46439;SDS011;32138;50.966;6.968;2023-04-24T06:03:14;9.10;;;5.60;;
46439;SDS011;32138;50.966;6.968;2023-04-24T06:04:15;8.38;;;5.90;;
46439;SDS011;32138;50.966;6.968;2023-04-24T06:05:16;7.22;;;5.63;;
46439;SDS011;32138;50.966;6.968;2023-04-24T06:06:17;8.25;;;5.43;;
46439;SDS011;32138;50.966;6.968;2023-04-24T06:07:19;9.38;;;5.30;;